Time;durP1;ratioP1;P1;durP2;ratioP2;P2;SDS_P1;SDS_P2;PMS_P1;PMS_P2;Temp;Humidity;BMP_temperature;BMP_pressure;BME280_temperature;BME280_humidity;BME280_pressure;Samples;Min_cycle;Max_cycle;Signal;HPM_P1;HPM_P2
2021/06/16 00:00:47;;;;;;;3.78;2.22;;;19.40;99.90;;;;;;5094515;28;20215;-58
2021/06/16 00:03:14;;;;;;;3.70;2.30;;;19.30;99.90;;;;;;5094533;28;20287;-58
2021/06/16 00:05:41;;;;;;;3.13;2.20;;;19.40;99.90;;;;;;5094969;28;20219;-58
2021/06/16 00:08:08;;;;;;;3.85;2.10;;;19.40;99.90;;;;;;5094189;28;20227;-57
2021/06/16 00:10:35;;;;;;;4.72;2.35;;;19.30;99.90;;;;;;5093968;28;20204;-58
2021/06/16 00:13:04;;;;;;;4.05;2.40;;;19.30;99.90;;;;;;5094233;28;20239;-59
2021/06/16 00:15:34;;;;;;;4.63;2.30;;;19.30;99.90;;;;;;5093937;28;20208;-58
2021/06/16 00:18:01;;;;;;;2.92;2.35;;;19.30;99.90;;;;;;5093905;28;20632;-58
2021/06/16 00:20:28;;;;;;;3.42;2.30;;;19.30;99.90;;;;;;5093787;28;20230;-58
2021/06/16 00:22:55;;;;;;;3.58;2.40;;;19.30;99.90;;;;;;5093397;28;20570;-58
2021/06/16 00:25:22;;;;;;;4.85;2.47;;;19.30;99.90;;;;;;5092259;28;20717;-57
2021/06/16 00:27:49;;;;;;;4.40;2.42;;;19.20;99.90;;;;;;5093316;28;20226;-58
2021/06/16 00:30:17;;;;;;;5.43;2.33;;;19.20;99.90;;;;;;5093523;28;20211;-59
2021/06/16 00:32:46;;;;;;;3.53;2.30;;;19.10;99.90;;;;;;5093465;28;20231;-62
2021/06/16 00:35:16;;;;;;;2.40;2.17;;;19.10;99.90;;;;;;5093541;28;20216;-58
2021/06/16 00:37:43;;;;;;;3.53;2.13;;;19.10;99.90;;;;;;5093216;28;20754;-58
2021/06/16 00:40:13;;;;;;;5.32;2.25;;;19.10;99.90;;;;;;5093593;28;20208;-57
2021/06/16 00:42:40;;;;;;;2.88;2.17;;;19.10;99.90;;;;;;5093470;28;20212;-58
2021/06/16 00:45:10;;;;;;;6.57;2.50;;;19.10;99.90;;;;;;5093229;28;20208;-57
2021/06/16 00:47:36;;;;;;;3.75;2.40;;;19.10;99.90;;;;;;5093120;28;20227;-58
2021/06/16 00:50:07;;;;;;;2.95;2.25;;;19.00;99.90;;;;;;5093096;28;20212;-60
2021/06/16 00:52:34;;;;;;;4.05;2.42;;;19.00;99.90;;;;;;5093277;28;20224;-58
2021/06/16 00:55:01;;;;;;;4.30;2.50;;;18.90;99.90;;;;;;5093094;28;20208;-58
2021/06/16 00:57:28;;;;;;;2.63;2.15;;;18.90;99.90;;;;;;5092800;28;20232;-59
2021/06/16 01:00:00;;;;;;;4.88;2.42;;;18.90;99.90;;;;;;5092969;28;20755;-58
2021/06/16 01:02:30;;;;;;;2.97;2.47;;;18.90;99.90;;;;;;5093094;28;20200;-59
2021/06/16 01:04:57;;;;;;;3.83;2.50;;;18.90;99.90;;;;;;5092746;28;20216;-58
2021/06/16 01:07:30;;;;;;;5.03;2.40;;;18.90;99.90;;;;;;5092995;28;20224;-57
2021/06/16 01:10:01;;;;;;;4.78;2.53;;;18.90;99.90;;;;;;5092810;28;20204;-58
2021/06/16 01:12:39;;;;;;;2.85;2.30;;;18.90;99.90;;;;;;5092606;28;20680;-57
2021/06/16 01:15:10;;;;;;;6.80;2.40;;;18.90;99.90;;;;;;5092772;28;20204;-58
2021/06/16 01:17:42;;;;;;;4.65;2.55;;;18.90;99.90;;;;;;5092915;28;20643;-58
2021/06/16 01:20:27;;;;;;;4.93;2.50;;;18.90;99.90;;;;;;5092786;28;20211;-58
2021/06/16 01:23:07;;;;;;;4.10;2.38;;;18.90;99.90;;;;;;5092463;28;20683;-58
2021/06/16 01:25:39;;;;;;;3.30;2.42;;;18.90;99.90;;;;;;5092308;28;20204;-58
2021/06/16 01:28:09;;;;;;;2.80;2.25;;;18.90;99.90;;;;;;5092793;28;20255;-57
2021/06/16 01:30:38;;;;;;;2.85;2.33;;;18.90;99.90;;;;;;5092636;28;20207;-58
2021/06/16 01:33:08;;;;;;;5.43;2.35;;;18.90;99.90;;;;;;5092406;28;20274;-59
2021/06/16 01:35:37;;;;;;;2.85;2.45;;;18.90;99.90;;;;;;5092024;28;20408;-58
2021/06/16 01:38:05;;;;;;;3.92;2.35;;;18.90;99.90;;;;;;5092571;28;20220;-58
2021/06/16 01:40:33;;;;;;;2.92;2.60;;;18.90;99.90;;;;;;5092361;28;20231;-58
2021/06/16 01:43:02;;;;;;;3.35;2.20;;;18.90;99.90;;;;;;5092214;28;20204;-58
2021/06/16 01:45:34;;;;;;;4.40;2.58;;;18.90;99.90;;;;;;5091998;28;20212;-58
2021/06/16 01:48:03;;;;;;;3.42;2.38;;;18.80;99.90;;;;;;5091926;28;20231;-58
2021/06/16 01:50:31;;;;;;;3.72;2.30;;;18.80;99.90;;;;;;5092075;28;20261;-58
2021/06/16 01:53:00;;;;;;;4.28;2.42;;;18.80;99.90;;;;;;5091847;28;20224;-58
2021/06/16 01:55:27;;;;;;;4.22;2.50;;;18.80;99.90;;;;;;5091896;28;20204;-58
2021/06/16 01:58:00;;;;;;;3.05;2.40;;;18.80;99.90;;;;;;5113791;22;20730;-60
2021/06/16 02:00:27;;;;;;;3.75;2.40;;;18.70;99.90;;;;;;5092225;28;20204;-60
2021/06/16 02:02:56;;;;;;;4.30;2.20;;;18.70;99.90;;;;;;5091864;28;20203;-60
2021/06/16 02:05:27;;;;;;;3.10;2.60;;;18.70;99.90;;;;;;5092395;28;20209;-61
2021/06/16 02:07:59;;;;;;;2.67;2.47;;;18.60;99.90;;;;;;5091867;28;20230;-60
2021/06/16 02:10:31;;;;;;;4.18;2.55;;;18.60;99.90;;;;;;5091826;28;20679;-60
2021/06/16 02:13:00;;;;;;;2.60;2.30;;;18.60;99.90;;;;;;5091994;28;20221;-60
2021/06/16 02:15:32;;;;;;;4.07;2.43;;;18.60;99.90;;;;;;5091572;28;20208;-60
2021/06/16 02:18:01;;;;;;;2.88;2.30;;;18.60;99.90;;;;;;5091826;28;20232;-60
2021/06/16 02:20:28;;;;;;;3.57;2.43;;;18.70;99.90;;;;;;5091942;28;20243;-60
2021/06/16 02:22:55;;;;;;;5.32;2.50;;;18.70;99.90;;;;;;5091606;28;20207;-60
2021/06/16 02:25:23;;;;;;;5.05;2.65;;;18.60;99.90;;;;;;5091505;28;20208;-60
2021/06/16 02:27:49;;;;;;;8.07;2.80;;;18.60;99.90;;;;;;5091265;28;20707;-60
2021/06/16 02:30:17;;;;;;;5.43;2.45;;;18.60;99.90;;;;;;5091407;28;20690;-60
2021/06/16 02:32:44;;;;;;;3.42;2.20;;;18.60;99.90;;;;;;5091398;28;20235;-60
2021/06/16 02:35:12;;;;;;;3.20;2.50;;;18.60;99.90;;;;;;5091358;28;20212;-60
2021/06/16 02:37:45;;;;;;;3.00;2.47;;;18.60;99.90;;;;;;5091421;28;20224;-60
2021/06/16 02:40:15;;;;;;;4.20;2.55;;;18.50;99.90;;;;;;5091355;28;20200;-60
2021/06/16 02:42:45;;;;;;;4.47;2.75;;;18.50;99.90;;;;;;5091085;28;20209;-60
2021/06/16 02:45:14;;;;;;;5.03;2.40;;;18.50;99.90;;;;;;5091184;28;20208;-60
2021/06/16 02:47:44;;;;;;;3.60;2.53;;;18.50;99.90;;;;;;5090381;28;20224;-60
2021/06/16 02:50:14;;;;;;;2.53;2.33;;;18.50;99.90;;;;;;5091039;28;20208;-60
2021/06/16 02:52:43;;;;;;;3.65;2.47;;;18.40;99.90;;;;;;5091040;28;20294;-60
2021/06/16 02:55:12;;;;;;;2.95;2.58;;;18.50;99.90;;;;;;5090787;28;20204;-60
2021/06/16 02:57:43;;;;;;;5.38;2.50;;;18.40;99.90;;;;;;5091257;28;20235;-60
2021/06/16 03:00:12;;;;;;;4.47;2.63;;;18.40;99.90;;;;;;5091296;28;20204;-60
2021/06/16 03:02:43;;;;;;;3.60;2.72;;;18.30;99.90;;;;;;5091103;28;20211;-60
2021/06/16 03:05:14;;;;;;;4.90;2.63;;;18.30;99.90;;;;;;5090856;28;20656;-61
2021/06/16 03:07:43;;;;;;;4.80;2.70;;;18.20;99.90;;;;;;5090893;28;20239;-61
2021/06/16 03:10:11;;;;;;;4.68;2.78;;;18.20;99.90;;;;;;5090925;28;20205;-61
2021/06/16 03:12:39;;;;;;;4.03;2.15;;;18.20;99.90;;;;;;5090923;28;20224;-60
2021/06/16 03:15:07;;;;;;;3.43;2.53;;;18.20;99.90;;;;;;5090858;28;20290;-60
2021/06/16 03:17:35;;;;;;;7.53;3.43;;;18.20;99.90;;;;;;5091036;28;20231;-61
2021/06/16 03:20:04;;;;;;;4.73;3.73;;;18.20;99.90;;;;;;5090862;28;20219;-61
2021/06/16 03:22:32;;;;;;;6.20;4.17;;;18.20;99.90;;;;;;5091019;28;20211;-60
2021/06/16 03:25:00;;;;;;;6.28;4.72;;;18.20;99.90;;;;;;5090863;28;20226;-60
2021/06/16 03:27:27;;;;;;;7.90;3.80;;;18.20;99.90;;;;;;5090818;28;20743;-61
2021/06/16 03:29:55;;;;;;;5.10;3.05;;;18.20;99.90;;;;;;5091165;28;20207;-61
2021/06/16 03:32:22;;;;;;;4.35;2.63;;;18.30;99.90;;;;;;5091120;28;20204;-61
2021/06/16 03:34:49;;;;;;;5.70;3.63;;;18.20;99.90;;;;;;5090992;28;20589;-61
2021/06/16 03:37:17;;;;;;;6.68;2.88;;;18.30;99.90;;;;;;5091168;28;20227;-61
2021/06/16 03:39:46;;;;;;;3.57;2.53;;;18.30;99.90;;;;;;5090767;28;20228;-60
2021/06/16 03:42:14;;;;;;;5.78;3.05;;;18.30;99.90;;;;;;5090734;28;20630;-60
2021/06/16 03:44:41;;;;;;;6.05;2.72;;;18.30;99.90;;;;;;5091103;28;20207;-60
2021/06/16 03:47:09;;;;;;;4.70;2.97;;;18.30;99.90;;;;;;5090545;28;20231;-60
2021/06/16 03:49:38;;;;;;;4.00;2.80;;;18.30;99.90;;;;;;5090498;28;20211;-59
2021/06/16 03:52:07;;;;;;;4.83;3.00;;;18.40;99.90;;;;;;5090727;28;20483;-60
2021/06/16 03:54:35;;;;;;;3.65;2.78;;;18.40;99.90;;;;;;5090445;28;20235;-60
2021/06/16 03:57:03;;;;;;;3.93;2.83;;;18.50;99.90;;;;;;5090424;28;20243;-60
2021/06/16 03:59:30;;;;;;;6.37;3.20;;;18.60;99.90;;;;;;5093187;28;20211;-60
2021/06/16 04:01:57;;;;;;;5.07;2.60;;;18.60;99.90;;;;;;5094540;28;20208;-59
2021/06/16 04:04:24;;;;;;;4.15;2.55;;;18.70;99.90;;;;;;5095062;28;20208;-59
2021/06/16 04:06:52;;;;;;;3.95;2.50;;;18.70;99.90;;;;;;5094172;28;20262;-59
2021/06/16 04:09:19;;;;;;;5.43;2.80;;;18.80;99.90;;;;;;5094030;28;20438;-60
2021/06/16 04:11:46;;;;;;;4.60;2.55;;;18.90;99.90;;;;;;5094076;28;20669;-59
2021/06/16 04:14:14;;;;;;;4.15;2.83;;;18.90;99.90;;;;;;5093800;28;20224;-59
2021/06/16 04:16:42;;;;;;;3.97;2.60;;;19.00;99.90;;;;;;5093714;28;20301;-60
2021/06/16 04:19:09;;;;;;;7.53;3.17;;;19.20;99.90;;;;;;5094104;28;20293;-60
2021/06/16 04:21:36;;;;;;;5.22;2.53;;;19.30;99.90;;;;;;5094024;28;20211;-59
2021/06/16 04:24:03;;;;;;;4.15;2.47;;;19.50;99.90;;;;;;5093743;28;20212;-60
2021/06/16 04:26:30;;;;;;;4.45;2.60;;;19.60;99.90;;;;;;5093850;28;20204;-60
2021/06/16 04:28:56;;;;;;;4.20;2.65;;;19.70;99.90;;;;;;5093482;28;20216;-60
2021/06/16 04:31:24;;;;;;;3.42;2.50;;;19.80;99.90;;;;;;5093870;28;20211;-60
2021/06/16 04:33:51;;;;;;;3.75;2.33;;;19.90;99.90;;;;;;5093710;28;20224;-60
2021/06/16 04:36:18;;;;;;;6.05;2.55;;;20.00;99.90;;;;;;5093742;28;20216;-60
2021/06/16 04:38:44;;;;;;;8.77;5.45;;;20.10;99.90;;;;;;5093966;28;20207;-60
2021/06/16 04:41:11;;;;;;;3.70;2.80;;;20.20;99.90;;;;;;5093765;28;20211;-60
2021/06/16 04:43:38;;;;;;;3.42;2.55;;;20.40;99.90;;;;;;5093106;28;20223;-60
2021/06/16 04:46:05;;;;;;;4.75;3.20;;;20.60;99.90;;;;;;5093630;28;20216;-59
2021/06/16 04:48:33;;;;;;;5.88;3.08;;;21.00;99.90;;;;;;5093409;28;20254;-59
2021/06/16 04:50:59;;;;;;;3.97;2.67;;;21.50;99.90;;;;;;5093101;28;20635;-60
2021/06/16 04:53:26;;;;;;;6.00;3.85;;;22.00;99.90;;;;;;5092843;28;20588;-60
2021/06/16 04:55:53;;;;;;;7.25;2.83;;;22.50;99.90;;;;;;5093401;28;20200;-60
2021/06/16 04:58:20;;;;;;;6.90;2.80;;;23.00;99.90;;;;;;5092999;28;20621;-60
2021/06/16 05:00:46;;;;;;;4.05;2.55;;;23.70;99.90;;;;;;5093437;28;20209;-60
2021/06/16 05:03:13;;;;;;;5.38;2.30;;;24.30;99.00;;;;;;5093264;28;20207;-60
2021/06/16 05:05:41;;;;;;;6.00;2.63;;;25.00;97.20;;;;;;5093487;28;20207;-60
2021/06/16 05:08:08;;;;;;;5.72;2.72;;;25.50;95.50;;;;;;5092597;28;20232;-60
2021/06/16 05:10:35;;;;;;;4.15;2.55;;;26.00;93.90;;;;;;5091836;28;20212;-59
2021/06/16 05:13:02;;;;;;;6.20;2.70;;;26.40;92.20;;;;;;5093340;28;20215;-60
2021/06/16 05:15:28;;;;;;;6.15;3.00;;;26.90;91.10;;;;;;5092773;28;20671;-61
2021/06/16 05:17:55;;;;;;;4.80;2.70;;;27.30;90.40;;;;;;5093005;28;20224;-61
2021/06/16 05:20:24;;;;;;;5.75;2.70;;;27.80;88.10;;;;;;5092826;28;20228;-61
2021/06/16 05:22:53;;;;;;;7.05;2.95;;;28.40;84.40;;;;;;5092858;28;20212;-61
2021/06/16 05:25:20;;;;;;;4.68;2.65;;;29.10;83.10;;;;;;5092755;28;20241;-61
2021/06/16 05:27:46;;;;;;;3.95;2.67;;;29.60;81.40;;;;;;5092917;28;20224;-61
2021/06/16 05:30:14;;;;;;;8.93;3.28;;;30.20;78.50;;;;;;5092703;28;20204;-61
2021/06/16 05:32:41;;;;;;;5.35;2.85;;;30.60;75.40;;;;;;5092545;28;20204;-61
2021/06/16 05:35:09;;;;;;;5.40;2.80;;;31.00;74.10;;;;;;5092199;28;20228;-62
2021/06/16 05:37:36;;;;;;;5.60;2.67;;;31.60;72.00;;;;;;5092148;28;20633;-61
2021/06/16 05:40:05;;;;;;;4.60;2.63;;;32.30;69.50;;;;;;5092800;28;20208;-62
2021/06/16 05:42:32;;;;;;;5.03;2.60;;;32.90;67.10;;;;;;5092525;28;20215;-62
2021/06/16 05:44:59;;;;;;;8.45;3.20;;;33.60;64.40;;;;;;5092538;28;20204;-61
2021/06/16 05:47:25;;;;;;;3.58;2.30;;;34.00;59.40;;;;;;5092674;28;20689;-62
2021/06/16 05:49:52;;;;;;;6.43;2.42;;;34.10;57.80;;;;;;5092570;28;20208;-62
2021/06/16 05:52:19;;;;;;;3.47;2.53;;;34.60;56.00;;;;;;5092225;28;20204;-60
2021/06/16 05:54:45;;;;;;;3.22;2.22;;;34.90;54.60;;;;;;5092227;28;20276;-61
2021/06/16 05:57:13;;;;;;;3.65;2.40;;;35.10;53.50;;;;;;5091858;28;20239;-61
2021/06/16 05:59:40;;;;;;;3.50;2.33;;;35.50;52.40;;;;;;5091978;28;20261;-61
2021/06/16 06:02:07;;;;;;;5.85;2.58;;;36.20;51.40;;;;;;5091966;28;20208;-61
2021/06/16 06:04:34;;;;;;;4.20;2.50;;;36.40;50.70;;;;;;5091947;28;20679;-61
2021/06/16 06:07:02;;;;;;;6.80;2.80;;;36.30;51.20;;;;;;5091959;28;20228;-61
2021/06/16 06:09:29;;;;;;;6.85;2.53;;;36.00;52.20;;;;;;5092236;28;20294;-61
2021/06/16 06:11:56;;;;;;;5.57;2.70;;;36.50;50.80;;;;;;5092335;28;20204;-61
2021/06/16 06:14:24;;;;;;;4.30;2.80;;;37.10;49.60;;;;;;5091425;28;20221;-61
2021/06/16 06:16:50;;;;;;;3.33;2.45;;;38.10;48.90;;;;;;5091261;28;20246;-63
2021/06/16 06:19:17;;;;;;;4.43;2.35;;;39.30;46.80;;;;;;5091213;28;20204;-61
2021/06/16 06:21:44;;;;;;;6.55;2.60;;;40.00;44.10;;;;;;5091599;28;20208;-61
2021/06/16 06:24:11;;;;;;;4.18;2.20;;;39.70;44.60;;;;;;5091635;28;20208;-61
2021/06/16 06:26:37;;;;;;;3.88;2.17;;;39.50;43.20;;;;;;5091497;28;20231;-61
2021/06/16 06:29:04;;;;;;;4.70;2.30;;;40.00;42.50;;;;;;5091289;28;20733;-61
2021/06/16 06:31:33;;;;;;;6.75;1.95;;;40.50;41.40;;;;;;5091503;28;20671;-61
2021/06/16 06:33:59;;;;;;;4.78;2.03;;;40.90;40.40;;;;;;5090955;28;20250;-61
2021/06/16 06:36:26;;;;;;;6.55;2.50;;;41.10;39.90;;;;;;5091640;28;20212;-61
2021/06/16 06:38:54;;;;;;;4.88;2.20;;;41.30;39.90;;;;;;5091394;28;20200;-61
2021/06/16 06:41:20;;;;;;;6.72;2.40;;;41.80;39.90;;;;;;5091344;28;20211;-62
2021/06/16 06:43:47;;;;;;;5.97;3.15;;;42.40;38.60;;;;;;5091124;28;20207;-62
2021/06/16 06:46:14;;;;;;;5.38;2.33;;;42.50;38.50;;;;;;5091321;28;20216;-61
2021/06/16 06:48:42;;;;;;;4.55;2.20;;;42.70;37.20;;;;;;5091175;28;20200;-62
2021/06/16 06:51:09;;;;;;;3.85;2.13;;;43.00;36.20;;;;;;5091406;28;20208;-61
2021/06/16 06:53:36;;;;;;;4.80;2.30;;;43.20;36.20;;;;;;5091009;28;20261;-61
2021/06/16 06:56:03;;;;;;;4.85;2.00;;;43.70;35.80;;;;;;5091168;28;20264;-61
2021/06/16 06:58:30;;;;;;;5.80;2.40;;;43.50;35.90;;;;;;5090922;28;20259;-60
2021/06/16 07:00:57;;;;;;;4.22;2.38;;;42.00;38.30;;;;;;5091371;28;20253;-60
2021/06/16 07:03:24;;;;;;;2.20;1.75;;;42.20;37.80;;;;;;5090857;28;20695;-60
2021/06/16 07:05:52;;;;;;;4.53;1.98;;;42.90;36.10;;;;;;5091448;28;20290;-61
2021/06/16 07:08:18;;;;;;;3.25;1.83;;;43.70;35.60;;;;;;5091101;28;20224;-60
2021/06/16 07:10:45;;;;;;;5.32;2.30;;;44.20;34.50;;;;;;5091114;28;20226;-61
2021/06/16 07:13:12;;;;;;;3.63;1.80;;;44.70;34.50;;;;;;5091080;28;20211;-60
2021/06/16 07:15:39;;;;;;;2.22;1.90;;;45.30;32.60;;;;;;5090851;28;20413;-60
2021/06/16 07:18:05;;;;;;;4.72;2.10;;;45.50;32.30;;;;;;5091142;28;20223;-61
2021/06/16 07:20:32;;;;;;;6.32;1.90;;;45.80;32.30;;;;;;5091315;28;20212;-60
2021/06/16 07:23:00;;;;;;;2.47;1.98;;;46.00;32.00;;;;;;5091179;28;20204;-61
2021/06/16 07:25:27;;;;;;;5.68;2.30;;;46.20;31.10;;;;;;5090904;28;20200;-61
2021/06/16 07:27:54;;;;;;;3.67;1.80;;;46.00;31.00;;;;;;5090742;28;20595;-61
2021/06/16 07:30:21;;;;;;;2.38;2.03;;;45.90;31.30;;;;;;5091402;28;20211;-61
2021/06/16 07:32:48;;;;;;;5.63;1.92;;;45.90;31.20;;;;;;5090956;28;20215;-61
2021/06/16 07:35:15;;;;;;;4.97;1.98;;;45.80;31.40;;;;;;5094519;28;20223;-61
2021/06/16 07:37:42;;;;;;;3.25;2.05;;;45.80;32.10;;;;;;5094693;28;20231;-61
2021/06/16 07:40:11;;;;;;;3.28;1.90;;;45.80;31.20;;;;;;5095098;28;20222;-60
2021/06/16 07:42:39;;;;;;;3.47;1.90;;;46.00;31.30;;;;;;5095357;28;20210;-61
2021/06/16 07:45:07;;;;;;;5.45;1.83;;;46.20;31.20;;;;;;5094657;28;20210;-62
2021/06/16 07:47:34;;;;;;;4.47;1.90;;;46.00;31.00;;;;;;5094636;28;20220;-60
2021/06/16 07:50:01;;;;;;;2.42;1.80;;;45.90;31.70;;;;;;5094683;28;20207;-61
2021/06/16 07:52:28;;;;;;;4.90;1.85;;;45.80;31.50;;;;;;5094508;28;20208;-61
2021/06/16 07:54:55;;;;;;;4.78;2.25;;;46.00;31.70;;;;;;5094215;28;20220;-61
2021/06/16 07:57:23;;;;;;;6.65;2.00;;;46.20;31.30;;;;;;5094856;28;20227;-61
2021/06/16 07:59:49;;;;;;;4.43;2.25;;;46.90;31.00;;;;;;5094481;28;20207;-61
2021/06/16 08:02:18;;;;;;;3.92;1.90;;;47.20;30.50;;;;;;5094444;28;20260;-61
2021/06/16 08:04:44;;;;;;;3.92;1.83;;;47.50;29.90;;;;;;5094242;28;20200;-61
2021/06/16 08:07:11;;;;;;;4.57;2.03;;;47.30;30.00;;;;;;5094188;28;20276;-60
2021/06/16 08:09:39;;;;;;;4.95;2.08;;;47.20;30.00;;;;;;5094182;28;20671;-61
2021/06/16 08:12:08;;;;;;;3.40;1.95;;;47.10;30.00;;;;;;5094104;28;20234;-61
2021/06/16 08:14:36;;;;;;;3.83;1.85;;;47.40;29.90;;;;;;5093794;28;20224;-61
2021/06/16 08:17:03;;;;;;;3.65;1.92;;;47.40;29.80;;;;;;5094278;28;20230;-61
2021/06/16 08:19:30;;;;;;;2.95;2.00;;;47.30;30.00;;;;;;5093239;28;20218;-61
2021/06/16 08:21:57;;;;;;;4.82;2.05;;;47.30;29.90;;;;;;5093627;28;20211;-61
2021/06/16 08:24:24;;;;;;;2.65;1.90;;;47.00;30.00;;;;;;5093078;28;20206;-61
2021/06/16 08:26:51;;;;;;;3.30;2.17;;;46.90;30.00;;;;;;5093755;28;20234;-61
2021/06/16 08:29:19;;;;;;;4.32;2.05;;;46.70;30.10;;;;;;5093780;28;20200;-61
2021/06/16 08:31:47;;;;;;;5.72;1.70;;;46.70;30.10;;;;;;5094033;28;20286;-61
2021/06/16 08:34:14;;;;;;;4.40;1.90;;;46.90;30.00;;;;;;5093702;28;20207;-63
2021/06/16 08:36:41;;;;;;;2.65;1.70;;;46.10;30.70;;;;;;5093823;28;20280;-60
2021/06/16 08:39:08;;;;;;;4.45;2.05;;;45.60;31.40;;;;;;5093327;28;20256;-61
2021/06/16 08:41:37;;;;;;;3.47;2.00;;;45.50;31.10;;;;;;5093091;28;20204;-60
2021/06/16 08:44:04;;;;;;;2.50;1.98;;;45.40;31.10;;;;;;5092908;28;20208;-60
2021/06/16 08:46:32;;;;;;;3.70;1.90;;;45.30;31.20;;;;;;5092511;28;20207;-61
2021/06/16 08:49:03;;;;;;;8.52;2.13;;;44.90;31.70;;;;;;5093546;28;20199;-60
2021/06/16 08:51:30;;;;;;;7.43;1.80;;;44.00;32.80;;;;;;5093455;28;20208;-60
2021/06/16 08:53:57;;;;;;;4.80;3.15;;;42.60;33.60;;;;;;5093447;28;20208;-60
2021/06/16 08:56:23;;;;;;;5.80;2.20;;;41.00;35.60;;;;;;5092891;28;20224;-60
2021/06/16 08:58:50;;;;;;;2.45;2.05;;;39.70;36.90;;;;;;5093027;28;20390;-60
2021/06/16 09:01:17;;;;;;;3.28;2.20;;;38.80;37.70;;;;;;5093144;28;20215;-61
2021/06/16 09:03:43;;;;;;;6.07;2.30;;;38.00;38.50;;;;;;5093305;28;20211;-60
2021/06/16 09:06:13;;;;;;;3.55;2.20;;;37.10;39.90;;;;;;5092616;28;20211;-60
2021/06/16 09:08:54;;;;;;;4.60;2.28;;;36.20;41.20;;;;;;5092641;28;20215;-60
2021/06/16 09:11:21;;;;;;;3.25;2.35;;;35.60;42.60;;;;;;5092345;28;20656;-60
2021/06/16 09:13:48;;;;;;;2.67;2.08;;;34.90;43.40;;;;;;5092530;28;20294;-60
2021/06/16 09:16:27;;;;;;;4.50;1.90;;;34.40;44.60;;;;;;5092396;28;20552;-60
2021/06/16 09:18:54;;;;;;;3.83;2.38;;;33.90;45.40;;;;;;5093127;28;20219;-60
2021/06/16 09:21:37;;;;;;;5.55;2.38;;;33.40;45.90;;;;;;5093023;28;20612;-60
2021/06/16 09:24:05;;;;;;;5.15;2.72;;;33.10;46.30;;;;;;5092933;28;20802;-60
2021/06/16 09:26:33;;;;;;;5.10;2.70;;;33.00;47.40;;;;;;5093207;28;20200;-61
2021/06/16 09:29:00;;;;;;;4.20;2.58;;;32.90;47.30;;;;;;5092839;28;20205;-60
2021/06/16 09:31:27;;;;;;;4.40;2.38;;;32.60;47.60;;;;;;5093073;28;20223;-60
2021/06/16 09:33:55;;;;;;;3.83;2.60;;;32.10;48.10;;;;;;5092587;28;20409;-60
2021/06/16 09:36:25;;;;;;;4.50;2.40;;;32.00;49.00;;;;;;5092230;28;20756;-60
2021/06/16 09:38:53;;;;;;;3.58;2.38;;;31.90;48.70;;;;;;5092647;28;20204;-60
2021/06/16 09:41:22;;;;;;;4.00;2.47;;;31.90;48.70;;;;;;5093043;28;20209;-60
2021/06/16 09:43:54;;;;;;;6.85;2.60;;;32.00;48.90;;;;;;5092299;28;20553;-60
2021/06/16 09:46:20;;;;;;;5.30;2.90;;;31.90;49.10;;;;;;5092357;28;20460;-60
2021/06/16 09:48:49;;;;;;;5.63;2.33;;;32.10;47.60;;;;;;5092841;28;20208;-61
2021/06/16 09:51:26;;;;;;;3.80;2.03;;;32.30;48.70;;;;;;5092298;28;20204;-61
2021/06/16 09:54:16;;;;;;;4.70;2.10;;;32.30;48.30;;;;;;5091910;28;20214;-60
2021/06/16 09:56:44;;;;;;;5.30;2.50;;;32.60;47.10;;;;;;5084338;28;20231;-61
2021/06/16 09:59:13;;;;;;;7.28;2.40;;;32.80;47.10;;;;;;5091785;28;20255;-60
2021/06/16 10:01:54;;;;;;;3.72;1.88;;;33.00;47.50;;;;;;5092065;28;20204;-60
2021/06/16 10:04:32;;;;;;;4.63;2.15;;;32.90;44.90;;;;;;5091837;28;20250;-60
2021/06/16 10:07:13;;;;;;;3.03;2.00;;;32.60;45.40;;;;;;5091958;28;20287;-60
2021/06/16 10:09:47;;;;;;;2.92;2.17;;;32.60;46.10;;;;;;5091901;28;20277;-60
2021/06/16 10:12:16;;;;;;;3.85;1.70;;;32.60;45.20;;;;;;5092328;28;20237;-60
2021/06/16 10:14:42;;;;;;;5.72;1.95;;;32.70;44.50;;;;;;5091858;28;20269;-61
2021/06/16 10:17:09;;;;;;;3.47;2.10;;;32.90;44.70;;;;;;5091905;28;20235;-61
2021/06/16 10:19:37;;;;;;;4.90;2.45;;;33.00;45.10;;;;;;5091608;28;20683;-60
2021/06/16 10:22:04;;;;;;;6.72;2.30;;;33.10;45.30;;;;;;5091694;28;20204;-61
2021/06/16 10:24:31;;;;;;;3.17;2.00;;;33.20;45.50;;;;;;5091519;28;20204;-61
2021/06/16 10:27:02;;;;;;;2.88;2.22;;;33.40;45.00;;;;;;5091698;28;20230;-61
2021/06/16 10:29:32;;;;;;;2.67;2.00;;;33.50;43.60;;;;;;5091557;28;20212;-60
2021/06/16 10:32:04;;;;;;;4.03;2.20;;;33.40;44.20;;;;;;5091904;28;20211;-60
2021/06/16 10:34:55;;;;;;;3.17;2.00;;;33.30;44.40;;;;;;5091458;28;20702;-60
2021/06/16 10:37:25;;;;;;;2.80;2.03;;;33.40;44.80;;;;;;5091507;28;20224;-67
2021/06/16 10:40:38;;;;;;;3.13;2.13;;;33.30;44.80;;;;;;5091228;28;20204;-64
2021/06/16 10:43:31;;;;;;;4.57;1.90;;;33.10;44.90;;;;;;5091386;28;20215;-64
2021/06/16 10:46:03;;;;;;;2.83;2.00;;;32.90;45.00;;;;;;5090985;28;20208;-64
2021/06/16 10:48:55;;;;;;;6.38;2.30;;;32.80;45.10;;;;;;5091697;28;20224;-64
2021/06/16 10:51:34;;;;;;;3.05;2.03;;;32.70;45.40;;;;;;5091218;28;20250;-64
2021/06/16 10:54:24;;;;;;;5.22;2.65;;;32.70;45.30;;;;;;5092294;28;20215;-63
2021/06/16 10:56:56;;;;;;;3.20;1.92;;;32.50;45.30;;;;;;5091125;28;20232;-64
2021/06/16 10:59:56;;;;;;;4.68;2.00;;;32.50;45.50;;;;;;5090642;28;20204;-64
2021/06/16 11:03:01;;;;;;;2.72;2.20;;;32.40;45.20;;;;;;5090545;28;20207;-64
2021/06/16 11:05:40;;;;;;;3.47;2.08;;;32.30;45.20;;;;;;5090638;28;20206;-64
2021/06/16 11:08:08;;;;;;;3.83;1.90;;;32.40;45.10;;;;;;5090462;28;20223;-64
2021/06/16 11:10:54;;;;;;;2.88;2.20;;;32.50;45.00;;;;;;5091242;28;20266;-59
2021/06/16 11:13:44;;;;;;;4.38;2.10;;;32.40;45.20;;;;;;5071252;28;20216;-61
2021/06/16 11:16:52;;;;;;;3.65;2.33;;;32.40;44.90;;;;;;5070384;28;20236;-62
2021/06/16 11:19:37;;;;;;;3.15;1.90;;;32.50;44.70;;;;;;5070301;28;20209;-62
2021/06/16 11:22:26;;;;;;;3.63;2.67;;;32.90;44.70;;;;;;5053357;28;20258;-63
2021/06/16 11:25:32;;;;;;;7.35;2.55;;;32.90;44.10;;;;;;5069881;28;20586;-60
2021/06/16 11:28:08;;;;;;;2.88;1.95;;;33.10;44.70;;;;;;5053660;28;20308;-61
2021/06/16 11:30:41;;;;;;;4.30;2.08;;;33.20;43.20;;;;;;5070410;28;20208;-61
2021/06/16 11:33:30;;;;;;;6.70;2.10;;;32.90;43.60;;;;;;5070559;28;20295;-63
2021/06/16 11:35:59;;;;;;;5.32;2.20;;;32.70;44.60;;;;;;5070107;28;20221;-61
2021/06/16 11:38:31;;;;;;;4.97;2.20;;;32.70;44.40;;;;;;5070360;28;20708;-60
2021/06/16 11:41:04;;;;;;;4.32;2.30;;;32.60;44.60;;;;;;5070693;28;20209;-60
2021/06/16 11:43:36;;;;;;;7.28;2.40;;;32.70;44.90;;;;;;5071105;28;20213;-63
2021/06/16 11:46:06;;;;;;;4.00;2.25;;;33.00;44.60;;;;;;5070770;28;20220;-61
2021/06/16 11:48:33;;;;;;;7.75;2.47;;;33.10;44.30;;;;;;5070464;28;20256;-63
2021/06/16 11:51:00;;;;;;;3.92;2.10;;;33.10;44.00;;;;;;5070760;28;20684;-63
2021/06/16 11:53:30;;;;;;;4.85;2.50;;;33.20;43.90;;;;;;5070660;28;20210;-62
2021/06/16 11:56:01;;;;;;;3.80;2.22;;;33.50;44.10;;;;;;5070580;28;20494;-61
2021/06/16 11:58:33;;;;;;;7.03;2.50;;;33.40;43.60;;;;;;5070401;28;20236;-62
2021/06/16 12:01:12;;;;;;;3.40;2.22;;;33.20;44.60;;;;;;5069950;28;20247;-62
2021/06/16 12:03:42;;;;;;;4.38;2.35;;;33.20;44.00;;;;;;5071088;28;20207;-64
2021/06/16 12:06:11;;;;;;;5.45;2.60;;;33.20;44.10;;;;;;5071775;28;20197;-62
2021/06/16 12:08:40;;;;;;;4.43;2.35;;;33.20;44.70;;;;;;5071035;28;20259;-64
2021/06/16 12:11:21;;;;;;;5.00;2.40;;;33.30;44.30;;;;;;5070820;28;20200;-63
2021/06/16 12:13:59;;;;;;;2.80;2.03;;;33.30;44.20;;;;;;5070581;28;20205;-62
2021/06/16 12:16:27;;;;;;;4.65;2.42;;;33.40;44.20;;;;;;5070225;28;20225;-64
2021/06/16 12:18:54;;;;;;;3.97;2.35;;;33.50;43.80;;;;;;5070731;28;20209;-63
2021/06/16 12:21:20;;;;;;;2.72;2.10;;;33.50;43.70;;;;;;5073759;28;20224;-61
2021/06/16 12:23:48;;;;;;;3.58;2.30;;;33.40;43.60;;;;;;5073836;28;20205;-62
2021/06/16 12:26:20;;;;;;;5.50;2.15;;;33.50;43.70;;;;;;5073228;28;20599;-61
2021/06/16 12:28:48;;;;;;;4.18;2.22;;;33.70;43.40;;;;;;5073547;28;20205;-61
2021/06/16 12:31:24;;;;;;;4.78;2.30;;;33.70;43.10;;;;;;5073766;28;20211;-66
2021/06/16 12:34:01;;;;;;;3.95;2.15;;;33.70;44.00;;;;;;5073707;28;20215;-62
2021/06/16 12:36:30;;;;;;;4.80;2.58;;;33.40;44.10;;;;;;5073215;28;20719;-60
2021/06/16 12:39:10;;;;;;;4.85;2.65;;;33.30;44.10;;;;;;5073337;28;20636;-60
2021/06/16 12:41:38;;;;;;;2.83;2.15;;;33.30;44.10;;;;;;5073405;28;20212;-62
2021/06/16 12:44:16;;;;;;;3.55;2.35;;;33.50;44.20;;;;;;5073055;28;20208;-62
2021/06/16 12:46:54;;;;;;;4.82;2.10;;;33.60;44.50;;;;;;5073146;28;20224;-62
2021/06/16 12:49:21;;;;;;;4.70;2.80;;;33.70;43.80;;;;;;5073300;28;20208;-62
2021/06/16 12:51:50;;;;;;;5.00;2.38;;;33.90;44.10;;;;;;5073044;28;20218;-62
2021/06/16 12:54:27;;;;;;;4.70;2.50;;;33.90;43.70;;;;;;5073679;28;20205;-62
2021/06/16 12:57:07;;;;;;;3.63;2.33;;;33.90;44.10;;;;;;5073017;28;20228;-63
2021/06/16 12:59:36;;;;;;;4.03;2.60;;;33.70;43.80;;;;;;5072357;28;20594;-61
2021/06/16 13:02:03;;;;;;;7.28;3.00;;;33.70;45.70;;;;;;5072454;28;20262;-61